N113U KMEV-KSAN
Flight info
| Callsign | N113U |
|---|---|
| Flight time | N/A |
| Altitude | 31000 |
| Route | DCT FRA DCT HUULK COMIX2 |
| Aircraft | C750/M-VGDW/C |
Departure
| Time | 2026-04-25 20:32 |
|---|---|
| Airport | Minden-Tahoe Airport (KMEV) |
Arrival
| Time | N/A |
|---|---|
| Airport | San Diego International Airport (KSAN) |
| Time | Latitude | Longitude | Altitude | Speed | Heading |
|---|---|---|---|---|---|
| 2026-04-25 20:20 | 38.99868 | -119.75594 | 4717 ft | 0 kts | 243° |
| 2026-04-25 20:26 | 38.99865 | -119.75602 | 4715 ft | 2 kts | 242° |
| 2026-04-25 20:26 | 38.99854 | -119.75603 | 4715 ft | 2 kts | 152° |
| 2026-04-25 20:27 | 38.99832 | -119.75576 | 4715 ft | 6 kts | 136° |
| 2026-04-25 20:27 | 38.99806 | -119.75543 | 4715 ft | 5 kts | 131° |
| 2026-04-25 20:27 | 38.99801 | -119.75499 | 4715 ft | 5 kts | 56° |
| 2026-04-25 20:27 | 38.99830 | -119.75458 | 4715 ft | 9 kts | 42° |
| 2026-04-25 20:28 | 38.99871 | -119.75406 | 4715 ft | 8 kts | 45° |
| 2026-04-25 20:28 | 38.99908 | -119.75359 | 4715 ft | 9 kts | 44° |
| 2026-04-25 20:28 | 38.99926 | -119.75301 | 4714 ft | 6 kts | 131° |
| 2026-04-25 20:28 | 38.99878 | -119.75240 | 4714 ft | 14 kts | 135° |
| 2026-04-25 20:29 | 38.99808 | -119.75148 | 4713 ft | 14 kts | 134° |
| 2026-04-25 20:29 | 38.99742 | -119.75066 | 4713 ft | 12 kts | 137° |
| 2026-04-25 20:29 | 38.99684 | -119.74989 | 4713 ft | 14 kts | 133° |
| 2026-04-25 20:29 | 38.99609 | -119.74893 | 4712 ft | 15 kts | 133° |
| 2026-04-25 20:30 | 38.99539 | -119.74804 | 4711 ft | 13 kts | 134° |
| 2026-04-25 20:30 | 38.99515 | -119.74698 | 4710 ft | 13 kts | 90° |
| 2026-04-25 20:30 | 38.99517 | -119.74589 | 4709 ft | 12 kts | 89° |
| 2026-04-25 20:30 | 38.99542 | -119.74555 | 4709 ft | 5 kts | 318° |
| 2026-04-25 20:31 | 38.99549 | -119.74565 | 4709 ft | 0 kts | 315° |
| 2026-04-25 20:31 | 38.99549 | -119.74566 | 4709 ft | 2 kts | 315° |
| 2026-04-25 20:31 | 38.99584 | -119.74611 | 4709 ft | 19 kts | 314° |
| 2026-04-25 20:32 | 38.99936 | -119.75064 | 4712 ft | 122 kts | 315° |
| 2026-04-25 20:32 | 39.00630 | -119.75954 | 5053 ft | 151 kts | 313° |
| 2026-04-25 20:32 | 39.01419 | -119.76924 | 5749 ft | 162 kts | 315° |
| 2026-04-25 20:32 | 39.02237 | -119.77953 | 6475 ft | 167 kts | 310° |
| 2026-04-25 20:33 | 39.02618 | -119.79372 | 7102 ft | 176 kts | 274° |
| 2026-04-25 20:33 | 39.02447 | -119.80981 | 7915 ft | 191 kts | 249° |
| 2026-04-25 20:33 | 39.01612 | -119.82368 | 8849 ft | 205 kts | 221° |
| 2026-04-25 20:33 | 39.00749 | -119.82913 | 9505 ft | 214 kts | 199° |
| 2026-04-25 20:34 | 38.98771 | -119.82743 | 10857 ft | 217 kts | 169° |
| 2026-04-25 20:34 | 38.97301 | -119.82277 | 11933 ft | 213 kts | 168° |
| 2026-04-25 20:34 | 38.95889 | -119.81855 | 12964 ft | 210 kts | 168° |
| 2026-04-25 20:34 | 38.94462 | -119.81439 | 13863 ft | 213 kts | 168° |
| 2026-04-25 20:35 | 38.92976 | -119.81002 | 14626 ft | 219 kts | 168° |
| 2026-04-25 20:35 | 38.91492 | -119.80562 | 15388 ft | 224 kts | 167° |
| 2026-04-25 20:35 | 38.89957 | -119.80109 | 16204 ft | 229 kts | 167° |
| 2026-04-25 20:35 | 38.88393 | -119.79648 | 17039 ft | 232 kts | 167° |
| 2026-04-25 20:36 | 38.86803 | -119.79179 | 17900 ft | 237 kts | 167° |
| 2026-04-25 20:36 | 38.85187 | -119.78703 | 18685 ft | 240 kts | 167° |
| 2026-04-25 20:36 | 38.83547 | -119.78221 | 19472 ft | 243 kts | 168° |
| 2026-04-25 20:36 | 38.81896 | -119.77736 | 20308 ft | 245 kts | 168° |
| 2026-04-25 20:37 | 38.80233 | -119.77247 | 21198 ft | 246 kts | 168° |
| 2026-04-25 20:37 | 38.78564 | -119.76756 | 22064 ft | 246 kts | 170° |
| 2026-04-25 20:37 | 38.76894 | -119.76265 | 22947 ft | 246 kts | 169° |
| 2026-04-25 20:37 | 38.75225 | -119.75775 | 23759 ft | 246 kts | 170° |
| 2026-04-25 20:38 | 38.73590 | -119.75290 | 24633 ft | 237 kts | 171° |
| 2026-04-25 20:38 | 38.72010 | -119.74809 | 25487 ft | 230 kts | 171° |
| 2026-04-25 20:38 | 38.70473 | -119.74332 | 26306 ft | 225 kts | 172° |
| 2026-04-25 20:38 | 38.68968 | -119.73853 | 27101 ft | 221 kts | 172° |
| 2026-04-25 20:39 | 38.67485 | -119.73451 | 27872 ft | 216 kts | 176° |
| 2026-04-25 20:39 | 38.66021 | -119.73082 | 28587 ft | 214 kts | 175° |
| 2026-04-25 20:39 | 38.64577 | -119.72662 | 29317 ft | 212 kts | 175° |
| 2026-04-25 20:39 | 38.63629 | -119.72378 | 29771 ft | 210 kts | 175° |
| 2026-04-25 20:40 | 38.61736 | -119.71823 | 30507 ft | 206 kts | 177° |
| 2026-04-25 20:40 | 38.60349 | -119.71423 | 30986 ft | 207 kts | 177° |
| 2026-04-25 20:40 | 38.58854 | -119.70994 | 30943 ft | 235 kts | 177° |
| 2026-04-25 20:40 | 38.57172 | -119.70510 | 30953 ft | 261 kts | 175° |
| 2026-04-25 20:41 | 38.55319 | -119.69964 | 30993 ft | 286 kts | 174° |
| 2026-04-25 20:41 | 38.53291 | -119.69369 | 31003 ft | 312 kts | 174° |
| 2026-04-25 20:41 | 38.51085 | -119.68728 | 30910 ft | 338 kts | 174° |
| 2026-04-25 20:41 | 38.48707 | -119.68034 | 30863 ft | 362 kts | 173° |
| 2026-04-25 20:42 | 38.46183 | -119.67288 | 30816 ft | 384 kts | 172° |
| 2026-04-25 20:42 | 38.43514 | -119.66514 | 30802 ft | 403 kts | 173° |
| 2026-04-25 20:42 | 38.40717 | -119.65720 | 30816 ft | 420 kts | 172° |
| 2026-04-25 20:42 | 38.37823 | -119.64862 | 30820 ft | 436 kts | 171° |
| 2026-04-25 20:43 | 38.34822 | -119.63964 | 30826 ft | 450 kts | 171° |
| 2026-04-25 20:43 | 38.31715 | -119.63079 | 30829 ft | 464 kts | 172° |
| 2026-04-25 20:43 | 38.28591 | -119.62200 | 31917 ft | 438 kts | 172° |
| 2026-04-25 20:43 | 38.26641 | -119.61630 | 33675 ft | 405 kts | 172° |